sensor_id;sensor_type;location;lat;lon;timestamp;P1;durP1;ratioP1;P2;durP2;ratioP2
8001;SDS011;4046;48.774;8.732;2022-09-01T00:01:30;18.53;;;16.73;;
8001;SDS011;4046;48.774;8.732;2022-09-01T00:03:56;18.20;;;16.40;;
8001;SDS011;4046;48.774;8.732;2022-09-01T00:06:27;14.97;;;13.57;;
8001;SDS011;4046;48.774;8.732;2022-09-01T00:08:56;15.23;;;13.80;;
8001;SDS011;4046;48.774;8.732;2022-09-01T00:11:25;17.40;;;15.70;;
8001;SDS011;4046;48.774;8.732;2022-09-01T00:13:52;16.87;;;15.30;;
8001;SDS011;4046;48.774;8.732;2022-09-01T00:16:20;19.50;;;17.40;;
8001;SDS011;4046;48.774;8.732;2022-09-01T00:18:48;20.80;;;18.50;;
8001;SDS011;4046;48.774;8.732;2022-09-01T00:21:16;15.93;;;14.53;;
8001;SDS011;4046;48.774;8.732;2022-09-01T00:23:43;17.20;;;15.50;;
8001;SDS011;4046;48.774;8.732;2022-09-01T00:26:09;19.07;;;17.17;;
8001;SDS011;4046;48.774;8.732;2022-09-01T00:28:36;17.73;;;15.93;;
8001;SDS011;4046;48.774;8.732;2022-09-01T00:31:02;18.97;;;16.97;;
8001;SDS011;4046;48.774;8.732;2022-09-01T00:33:31;19.20;;;17.33;;
8001;SDS011;4046;48.774;8.732;2022-09-01T00:35:57;19.07;;;16.93;;
8001;SDS011;4046;48.774;8.732;2022-09-01T00:38:24;19.20;;;17.30;;
8001;SDS011;4046;48.774;8.732;2022-09-01T00:40:49;21.00;;;18.90;;
8001;SDS011;4046;48.774;8.732;2022-09-01T00:43:16;21.03;;;18.90;;
8001;SDS011;4046;48.774;8.732;2022-09-01T00:45:48;21.53;;;19.50;;
8001;SDS011;4046;48.774;8.732;2022-09-01T00:48:16;16.97;;;15.40;;
8001;SDS011;4046;48.774;8.732;2022-09-01T00:50:44;16.07;;;14.57;;
8001;SDS011;4046;48.774;8.732;2022-09-01T00:53:10;16.47;;;14.87;;
8001;SDS011;4046;48.774;8.732;2022-09-01T00:55:36;17.03;;;15.43;;
8001;SDS011;4046;48.774;8.732;2022-09-01T00:58:03;16.53;;;15.03;;
8001;SDS011;4046;48.774;8.732;2022-09-01T01:00:35;17.93;;;15.20;;
8001;SDS011;4046;48.774;8.732;2022-09-01T01:03:09;15.87;;;14.33;;
8001;SDS011;4046;48.774;8.732;2022-09-01T01:05:40;14.77;;;13.47;;
8001;SDS011;4046;48.774;8.732;2022-09-01T01:08:18;14.57;;;13.07;;
8001;SDS011;4046;48.774;8.732;2022-09-01T01:10:59;14.37;;;13.07;;
8001;SDS011;4046;48.774;8.732;2022-09-01T01:13:26;17.00;;;15.40;;
8001;SDS011;4046;48.774;8.732;2022-09-01T01:16:01;14.57;;;13.17;;
8001;SDS011;4046;48.774;8.732;2022-09-01T01:18:28;15.37;;;13.90;;
8001;SDS011;4046;48.774;8.732;2022-09-01T01:20:57;15.60;;;14.00;;
8001;SDS011;4046;48.774;8.732;2022-09-01T01:23:50;15.63;;;14.23;;
8001;SDS011;4046;48.774;8.732;2022-09-01T01:26:22;14.77;;;13.37;;
8001;SDS011;4046;48.774;8.732;2022-09-01T01:28:48;16.50;;;13.67;;
8001;SDS011;4046;48.774;8.732;2022-09-01T01:31:19;15.17;;;13.70;;
8001;SDS011;4046;48.774;8.732;2022-09-01T01:33:50;16.33;;;14.40;;
8001;SDS011;4046;48.774;8.732;2022-09-01T01:36:19;14.23;;;12.93;;
8001;SDS011;4046;48.774;8.732;2022-09-01T01:38:46;16.43;;;14.83;;
8001;SDS011;4046;48.774;8.732;2022-09-01T01:41:13;18.73;;;16.47;;
8001;SDS011;4046;48.774;8.732;2022-09-01T01:43:42;18.30;;;16.50;;
8001;SDS011;4046;48.774;8.732;2022-09-01T01:46:08;16.60;;;14.90;;
8001;SDS011;4046;48.774;8.732;2022-09-01T01:48:37;16.90;;;15.30;;
8001;SDS011;4046;48.774;8.732;2022-09-01T01:51:05;16.73;;;15.23;;
8001;SDS011;4046;48.774;8.732;2022-09-01T01:53:32;20.03;;;16.20;;
8001;SDS011;4046;48.774;8.732;2022-09-01T01:55:58;18.53;;;16.67;;
8001;SDS011;4046;48.774;8.732;2022-09-01T01:58:25;18.77;;;16.77;;
8001;SDS011;4046;48.774;8.732;2022-09-01T02:00:53;18.17;;;16.40;;
8001;SDS011;4046;48.774;8.732;2022-09-01T02:03:21;19.80;;;17.50;;
8001;SDS011;4046;48.774;8.732;2022-09-01T02:05:50;19.33;;;17.33;;
8001;SDS011;4046;48.774;8.732;2022-09-01T02:08:18;19.10;;;17.20;;
8001;SDS011;4046;48.774;8.732;2022-09-01T02:10:48;18.77;;;16.80;;
8001;SDS011;4046;48.774;8.732;2022-09-01T02:13:16;19.27;;;17.27;;
8001;SDS011;4046;48.774;8.732;2022-09-01T02:15:53;19.10;;;16.67;;
8001;SDS011;4046;48.774;8.732;2022-09-01T02:18:22;19.03;;;16.30;;
8001;SDS011;4046;48.774;8.732;2022-09-01T02:20:54;17.83;;;15.90;;
8001;SDS011;4046;48.774;8.732;2022-09-01T02:23:23;20.30;;;18.07;;
8001;SDS011;4046;48.774;8.732;2022-09-01T02:25:50;21.90;;;16.90;;
8001;SDS011;4046;48.774;8.732;2022-09-01T02:28:21;20.17;;;18.10;;
8001;SDS011;4046;48.774;8.732;2022-09-01T02:30:51;19.37;;;17.10;;
8001;SDS011;4046;48.774;8.732;2022-09-01T02:33:19;20.90;;;17.97;;
8001;SDS011;4046;48.774;8.732;2022-09-01T02:35:47;20.50;;;18.27;;
8001;SDS011;4046;48.774;8.732;2022-09-01T02:38:15;21.97;;;17.57;;
8001;SDS011;4046;48.774;8.732;2022-09-01T02:40:42;24.10;;;18.40;;
8001;SDS011;4046;48.774;8.732;2022-09-01T02:43:10;23.87;;;19.87;;
8001;SDS011;4046;48.774;8.732;2022-09-01T02:45:37;25.93;;;19.20;;
8001;SDS011;4046;48.774;8.732;2022-09-01T02:48:09;34.30;;;20.50;;
8001;SDS011;4046;48.774;8.732;2022-09-01T02:50:35;30.17;;;21.60;;
8001;SDS011;4046;48.774;8.732;2022-09-01T02:53:03;28.57;;;22.17;;
8001;SDS011;4046;48.774;8.732;2022-09-01T02:55:40;26.57;;;21.40;;
8001;SDS011;4046;48.774;8.732;2022-09-01T02:58:06;27.50;;;20.33;;
8001;SDS011;4046;48.774;8.732;2022-09-01T03:00:35;29.33;;;21.27;;
8001;SDS011;4046;48.774;8.732;2022-09-01T03:03:03;25.60;;;20.70;;
8001;SDS011;4046;48.774;8.732;2022-09-01T03:05:30;25.73;;;20.90;;
8001;SDS011;4046;48.774;8.732;2022-09-01T03:07:59;26.30;;;19.17;;
8001;SDS011;4046;48.774;8.732;2022-09-01T03:10:31;26.50;;;21.27;;
8001;SDS011;4046;48.774;8.732;2022-09-01T03:13:01;28.77;;;21.63;;
8001;SDS011;4046;48.774;8.732;2022-09-01T03:15:30;24.80;;;20.10;;
8001;SDS011;4046;48.774;8.732;2022-09-01T03:17:58;25.60;;;19.27;;
8001;SDS011;4046;48.774;8.732;2022-09-01T03:20:26;26.07;;;19.93;;
8001;SDS011;4046;48.774;8.732;2022-09-01T03:22:53;27.13;;;20.63;;
8001;SDS011;4046;48.774;8.732;2022-09-01T03:25:19;25.63;;;20.63;;
8001;SDS011;4046;48.774;8.732;2022-09-01T03:27:45;24.07;;;19.30;;
8001;SDS011;4046;48.774;8.732;2022-09-01T03:30:11;25.10;;;19.70;;
8001;SDS011;4046;48.774;8.732;2022-09-01T03:32:37;24.10;;;18.50;;
8001;SDS011;4046;48.774;8.732;2022-09-01T03:35:03;23.20;;;18.03;;
8001;SDS011;4046;48.774;8.732;2022-09-01T03:37:30;25.23;;;20.10;;
8001;SDS011;4046;48.774;8.732;2022-09-01T03:39:56;25.37;;;20.13;;
8001;SDS011;4046;48.774;8.732;2022-09-01T03:42:23;34.90;;;24.97;;
8001;SDS011;4046;48.774;8.732;2022-09-01T03:44:53;37.37;;;24.60;;
8001;SDS011;4046;48.774;8.732;2022-09-01T03:47:20;31.23;;;23.93;;
8001;SDS011;4046;48.774;8.732;2022-09-01T03:49:48;38.80;;;25.60;;
8001;SDS011;4046;48.774;8.732;2022-09-01T03:52:15;33.17;;;22.50;;
8001;SDS011;4046;48.774;8.732;2022-09-01T03:54:42;28.63;;;23.30;;
8001;SDS011;4046;48.774;8.732;2022-09-01T03:57:09;28.60;;;22.73;;
8001;SDS011;4046;48.774;8.732;2022-09-01T03:59:36;30.80;;;22.63;;
8001;SDS011;4046;48.774;8.732;2022-09-01T04:02:07;28.07;;;22.60;;
8001;SDS011;4046;48.774;8.732;2022-09-01T04:04:33;27.20;;;22.40;;
8001;SDS011;4046;48.774;8.732;2022-09-01T04:06:59;24.33;;;21.60;;
8001;SDS011;4046;48.774;8.732;2022-09-01T04:09:25;27.00;;;22.37;;
8001;SDS011;4046;48.774;8.732;2022-09-01T04:11:51;25.03;;;21.57;;
8001;SDS011;4046;48.774;8.732;2022-09-01T04:14:18;27.00;;;22.13;;
8001;SDS011;4046;48.774;8.732;2022-09-01T04:16:44;28.57;;;21.50;;
8001;SDS011;4046;48.774;8.732;2022-09-01T04:19:31;26.07;;;21.73;;
8001;SDS011;4046;48.774;8.732;2022-09-01T04:22:00;26.60;;;21.53;;
8001;SDS011;4046;48.774;8.732;2022-09-01T04:24:28;27.80;;;22.57;;
8001;SDS011;4046;48.774;8.732;2022-09-01T04:26:56;31.73;;;22.63;;
8001;SDS011;4046;48.774;8.732;2022-09-01T04:29:27;33.67;;;24.13;;
8001;SDS011;4046;48.774;8.732;2022-09-01T04:31:54;32.37;;;26.00;;
8001;SDS011;4046;48.774;8.732;2022-09-01T04:34:26;36.20;;;26.50;;
8001;SDS011;4046;48.774;8.732;2022-09-01T04:36:52;36.70;;;27.50;;
8001;SDS011;4046;48.774;8.732;2022-09-01T04:39:19;36.73;;;26.07;;
8001;SDS011;4046;48.774;8.732;2022-09-01T04:41:46;31.80;;;25.47;;
8001;SDS011;4046;48.774;8.732;2022-09-01T04:44:14;28.80;;;23.60;;
8001;SDS011;4046;48.774;8.732;2022-09-01T04:46:43;30.03;;;22.67;;
8001;SDS011;4046;48.774;8.732;2022-09-01T04:49:15;26.60;;;22.10;;
8001;SDS011;4046;48.774;8.732;2022-09-01T04:51:49;25.70;;;22.30;;
8001;SDS011;4046;48.774;8.732;2022-09-01T04:54:16;24.83;;;21.17;;
8001;SDS011;4046;48.774;8.732;2022-09-01T04:56:43;24.90;;;20.13;;
8001;SDS011;4046;48.774;8.732;2022-09-01T04:59:11;26.37;;;23.17;;
8001;SDS011;4046;48.774;8.732;2022-09-01T05:01:38;29.67;;;22.97;;
8001;SDS011;4046;48.774;8.732;2022-09-01T05:04:08;29.37;;;23.60;;
8001;SDS011;4046;48.774;8.732;2022-09-01T05:06:38;27.07;;;24.17;;
8001;SDS011;4046;48.774;8.732;2022-09-01T05:09:06;32.30;;;25.17;;
8001;SDS011;4046;48.774;8.732;2022-09-01T05:11:34;35.83;;;26.90;;
8001;SDS011;4046;48.774;8.732;2022-09-01T05:14:01;31.33;;;25.80;;
8001;SDS011;4046;48.774;8.732;2022-09-01T05:16:29;30.47;;;27.10;;
8001;SDS011;4046;48.774;8.732;2022-09-01T05:18:55;27.53;;;24.17;;
8001;SDS011;4046;48.774;8.732;2022-09-01T05:21:22;31.20;;;26.20;;
8001;SDS011;4046;48.774;8.732;2022-09-01T05:23:50;31.70;;;25.63;;
8001;SDS011;4046;48.774;8.732;2022-09-01T05:26:22;28.73;;;25.50;;
8001;SDS011;4046;48.774;8.732;2022-09-01T05:28:55;33.57;;;26.73;;
8001;SDS011;4046;48.774;8.732;2022-09-01T05:31:27;34.00;;;26.60;;
8001;SDS011;4046;48.774;8.732;2022-09-01T05:34:02;33.00;;;27.50;;
8001;SDS011;4046;48.774;8.732;2022-09-01T05:36:29;33.00;;;26.57;;
8001;SDS011;4046;48.774;8.732;2022-09-01T05:38:57;34.40;;;28.27;;
8001;SDS011;4046;48.774;8.732;2022-09-01T05:41:25;44.50;;;27.57;;
8001;SDS011;4046;48.774;8.732;2022-09-01T05:43:51;28.40;;;24.53;;
8001;SDS011;4046;48.774;8.732;2022-09-01T05:46:20;36.40;;;27.70;;
8001;SDS011;4046;48.774;8.732;2022-09-01T05:48:48;32.30;;;26.83;;
8001;SDS011;4046;48.774;8.732;2022-09-01T05:51:17;30.60;;;25.90;;
8001;SDS011;4046;48.774;8.732;2022-09-01T05:53:45;34.83;;;27.60;;
8001;SDS011;4046;48.774;8.732;2022-09-01T05:56:11;29.60;;;26.27;;
8001;SDS011;4046;48.774;8.732;2022-09-01T05:58:37;28.73;;;24.53;;
8001;SDS011;4046;48.774;8.732;2022-09-01T06:01:04;28.57;;;24.20;;
8001;SDS011;4046;48.774;8.732;2022-09-01T06:03:31;29.70;;;25.50;;
8001;SDS011;4046;48.774;8.732;2022-09-01T06:06:04;28.03;;;24.50;;
8001;SDS011;4046;48.774;8.732;2022-09-01T06:08:36;30.77;;;26.30;;
8001;SDS011;4046;48.774;8.732;2022-09-01T06:11:03;27.00;;;24.13;;
8001;SDS011;4046;48.774;8.732;2022-09-01T06:13:37;29.87;;;26.30;;
8001;SDS011;4046;48.774;8.732;2022-09-01T06:16:07;29.40;;;25.27;;
8001;SDS011;4046;48.774;8.732;2022-09-01T06:18:37;26.93;;;24.03;;
8001;SDS011;4046;48.774;8.732;2022-09-01T06:21:04;31.57;;;24.53;;
8001;SDS011;4046;48.774;8.732;2022-09-01T06:23:33;27.00;;;24.10;;
8001;SDS011;4046;48.774;8.732;2022-09-01T06:26:00;28.00;;;25.00;;
8001;SDS011;4046;48.774;8.732;2022-09-01T06:28:28;30.33;;;25.57;;
8001;SDS011;4046;48.774;8.732;2022-09-01T06:30:54;28.20;;;25.17;;
8001;SDS011;4046;48.774;8.732;2022-09-01T06:33:21;25.93;;;23.23;;
8001;SDS011;4046;48.774;8.732;2022-09-01T06:35:49;26.67;;;23.43;;
8001;SDS011;4046;48.774;8.732;2022-09-01T06:38:17;26.13;;;22.90;;
8001;SDS011;4046;48.774;8.732;2022-09-01T06:40:44;26.73;;;22.40;;
8001;SDS011;4046;48.774;8.732;2022-09-01T06:43:11;24.90;;;22.30;;
8001;SDS011;4046;48.774;8.732;2022-09-01T06:45:41;24.10;;;21.60;;
8001;SDS011;4046;48.774;8.732;2022-09-01T06:48:09;22.50;;;20.20;;
8001;SDS011;4046;48.774;8.732;2022-09-01T06:50:40;24.17;;;21.80;;
8001;SDS011;4046;48.774;8.732;2022-09-01T06:53:07;22.80;;;20.50;;
8001;SDS011;4046;48.774;8.732;2022-09-01T06:55:38;28.53;;;19.50;;
8001;SDS011;4046;48.774;8.732;2022-09-01T06:58:09;20.93;;;18.93;;
8001;SDS011;4046;48.774;8.732;2022-09-01T07:00:36;20.30;;;18.17;;
8001;SDS011;4046;48.774;8.732;2022-09-01T07:03:06;21.23;;;19.13;;
8001;SDS011;4046;48.774;8.732;2022-09-01T07:05:33;19.80;;;17.97;;
8001;SDS011;4046;48.774;8.732;2022-09-01T07:08:03;20.80;;;18.80;;
8001;SDS011;4046;48.774;8.732;2022-09-01T07:10:32;21.07;;;18.97;;
8001;SDS011;4046;48.774;8.732;2022-09-01T07:12:59;19.63;;;17.80;;
8001;SDS011;4046;48.774;8.732;2022-09-01T07:15:25;20.33;;;18.23;;
8001;SDS011;4046;48.774;8.732;2022-09-01T07:17:53;20.57;;;18.60;;
8001;SDS011;4046;48.774;8.732;2022-09-01T07:20:21;20.10;;;18.20;;
8001;SDS011;4046;48.774;8.732;2022-09-01T07:22:49;17.83;;;16.33;;
8001;SDS011;4046;48.774;8.732;2022-09-01T07:25:16;18.90;;;16.90;;
8001;SDS011;4046;48.774;8.732;2022-09-01T07:27:42;18.97;;;17.20;;
8001;SDS011;4046;48.774;8.732;2022-09-01T07:30:15;20.07;;;18.07;;
8001;SDS011;4046;48.774;8.732;2022-09-01T07:32:43;20.60;;;18.47;;
8001;SDS011;4046;48.774;8.732;2022-09-01T07:35:10;18.27;;;16.47;;
8001;SDS011;4046;48.774;8.732;2022-09-01T07:37:37;18.53;;;16.77;;
8001;SDS011;4046;48.774;8.732;2022-09-01T07:40:07;18.00;;;16.30;;
8001;SDS011;4046;48.774;8.732;2022-09-01T07:42:34;18.00;;;16.40;;
8001;SDS011;4046;48.774;8.732;2022-09-01T07:45:03;17.43;;;15.60;;
8001;SDS011;4046;48.774;8.732;2022-09-01T07:47:34;14.87;;;13.60;;
8001;SDS011;4046;48.774;8.732;2022-09-01T07:50:05;15.60;;;14.20;;
8001;SDS011;4046;48.774;8.732;2022-09-01T07:52:36;15.60;;;14.10;;
8001;SDS011;4046;48.774;8.732;2022-09-01T07:55:10;15.87;;;14.47;;
8001;SDS011;4046;48.774;8.732;2022-09-01T07:57:38;14.00;;;12.80;;
8001;SDS011;4046;48.774;8.732;2022-09-01T08:00:07;16.80;;;15.10;;
8001;SDS011;4046;48.774;8.732;2022-09-01T08:02:36;14.40;;;13.07;;
8001;SDS011;4046;48.774;8.732;2022-09-01T08:05:05;14.37;;;13.07;;
8001;SDS011;4046;48.774;8.732;2022-09-01T08:07:33;14.47;;;12.90;;
8001;SDS011;4046;48.774;8.732;2022-09-01T08:10:00;13.50;;;12.20;;
8001;SDS011;4046;48.774;8.732;2022-09-01T08:12:25;12.93;;;11.73;;
8001;SDS011;4046;48.774;8.732;2022-09-01T08:14:51;14.20;;;12.90;;
8001;SDS011;4046;48.774;8.732;2022-09-01T08:17:17;12.60;;;11.60;;
8001;SDS011;4046;48.774;8.732;2022-09-01T08:19:44;11.50;;;10.60;;
8001;SDS011;4046;48.774;8.732;2022-09-01T08:22:11;9.83;;;9.00;;
8001;SDS011;4046;48.774;8.732;2022-09-01T08:24:38;11.00;;;9.83;;
8001;SDS011;4046;48.774;8.732;2022-09-01T08:27:04;9.77;;;8.97;;
8001;SDS011;4046;48.774;8.732;2022-09-01T08:29:30;9.77;;;8.97;;
8001;SDS011;4046;48.774;8.732;2022-09-01T08:31:55;10.60;;;9.50;;
8001;SDS011;4046;48.774;8.732;2022-09-01T08:34:23;9.13;;;8.33;;
8001;SDS011;4046;48.774;8.732;2022-09-01T08:36:50;10.33;;;9.40;;
8001;SDS011;4046;48.774;8.732;2022-09-01T08:39:16;9.47;;;8.77;;
8001;SDS011;4046;48.774;8.732;2022-09-01T08:44:32;9.83;;;8.97;;
8001;SDS011;4046;48.774;8.732;2022-09-01T08:47:28;8.23;;;7.53;;
8001;SDS011;4046;48.774;8.732;2022-09-01T08:49:55;8.73;;;7.80;;
8001;SDS011;4046;48.774;8.732;2022-09-01T08:52:25;8.33;;;7.53;;
8001;SDS011;4046;48.774;8.732;2022-09-01T08:57:42;7.60;;;7.00;;
8001;SDS011;4046;48.774;8.732;2022-09-01T09:00:11;7.57;;;7.00;;
8001;SDS011;4046;48.774;8.732;2022-09-01T09:10:59;7.73;;;7.13;;
8001;SDS011;4046;48.774;8.732;2022-09-01T09:13:52;8.30;;;7.60;;
8001;SDS011;4046;48.774;8.732;2022-09-01T09:16:31;7.50;;;6.80;;
8001;SDS011;4046;48.774;8.732;2022-09-01T09:19:07;7.40;;;6.80;;
8001;SDS011;4046;48.774;8.732;2022-09-01T09:21:47;7.57;;;6.97;;
8001;SDS011;4046;48.774;8.732;2022-09-01T09:29:54;6.90;;;6.30;;
8001;SDS011;4046;48.774;8.732;2022-09-01T09:32:42;6.40;;;5.80;;
8001;SDS011;4046;48.774;8.732;2022-09-01T09:43:23;6.47;;;5.60;;
8001;SDS011;4046;48.774;8.732;2022-09-01T09:45:52;6.80;;;6.30;;
8001;SDS011;4046;48.774;8.732;2022-09-01T09:51:51;7.27;;;6.57;;
8001;SDS011;4046;48.774;8.732;2022-09-01T09:54:23;6.30;;;5.80;;
8001;SDS011;4046;48.774;8.732;2022-09-01T09:57:05;6.73;;;6.17;;
8001;SDS011;4046;48.774;8.732;2022-09-01T09:59:59;5.93;;;5.43;;
8001;SDS011;4046;48.774;8.732;2022-09-01T10:05:00;6.90;;;6.30;;
8001;SDS011;4046;48.774;8.732;2022-09-01T10:07:51;14.20;;;7.03;;
8001;SDS011;4046;48.774;8.732;2022-09-01T10:13:03;8.20;;;7.50;;
8001;SDS011;4046;48.774;8.732;2022-09-01T10:15:32;7.60;;;7.00;;
8001;SDS011;4046;48.774;8.732;2022-09-01T10:18:21;7.43;;;6.83;;
8001;SDS011;4046;48.774;8.732;2022-09-01T10:21:20;6.93;;;6.43;;
8001;SDS011;4046;48.774;8.732;2022-09-01T10:23:54;9.60;;;8.80;;
8001;SDS011;4046;48.774;8.732;2022-09-01T10:26:24;7.50;;;6.90;;
8001;SDS011;4046;48.774;8.732;2022-09-01T10:31:54;7.77;;;7.17;;
8001;SDS011;4046;48.774;8.732;2022-09-01T10:34:20;9.17;;;8.27;;
8001;SDS011;4046;48.774;8.732;2022-09-01T10:36:47;7.00;;;6.30;;
8001;SDS011;4046;48.774;8.732;2022-09-01T10:39:15;7.40;;;6.70;;
8001;SDS011;4046;48.774;8.732;2022-09-01T10:41:46;6.60;;;6.10;;
8001;SDS011;4046;48.774;8.732;2022-09-01T10:44:19;7.03;;;6.43;;
8001;SDS011;4046;48.774;8.732;2022-09-01T10:46:47;6.63;;;6.17;;
8001;SDS011;4046;48.774;8.732;2022-09-01T10:49:19;7.10;;;6.50;;
8001;SDS011;4046;48.774;8.732;2022-09-01T10:51:45;6.67;;;6.17;;
8001;SDS011;4046;48.774;8.732;2022-09-01T10:54:47;5.77;;;5.37;;
8001;SDS011;4046;48.774;8.732;2022-09-01T10:57:03;6.00;;;5.50;;
8001;SDS011;4046;48.774;8.732;2022-09-01T10:59:48;6.10;;;5.70;;
8001;SDS011;4046;48.774;8.732;2022-09-01T11:02:17;6.37;;;5.87;;
8001;SDS011;4046;48.774;8.732;2022-09-01T11:09:44;5.10;;;4.80;;
8001;SDS011;4046;48.774;8.732;2022-09-01T11:12:16;5.37;;;4.23;;
8001;SDS011;4046;48.774;8.732;2022-09-01T11:14:54;4.33;;;4.03;;
8001;SDS011;4046;48.774;8.732;2022-09-01T11:17:32;5.23;;;4.80;;
8001;SDS011;4046;48.774;8.732;2022-09-01T11:20:09;4.47;;;4.17;;
8001;SDS011;4046;48.774;8.732;2022-09-01T11:25:44;4.47;;;4.13;;
8001;SDS011;4046;48.774;8.732;2022-09-01T11:36:31;4.97;;;4.13;;
8001;SDS011;4046;48.774;8.732;2022-09-01T11:39:08;5.70;;;5.20;;
8001;SDS011;4046;48.774;8.732;2022-09-01T11:47:17;5.47;;;5.07;;
8001;SDS011;4046;48.774;8.732;2022-09-01T11:49:52;4.60;;;4.20;;
8001;SDS011;4046;48.774;8.732;2022-09-01T11:52:22;4.60;;;4.30;;
8001;SDS011;4046;48.774;8.732;2022-09-01T11:54:50;3.67;;;3.47;;
8001;SDS011;4046;48.774;8.732;2022-09-01T11:57:24;4.90;;;4.10;;
8001;SDS011;4046;48.774;8.732;2022-09-01T11:59:53;4.10;;;3.87;;
8001;SDS011;4046;48.774;8.732;2022-09-01T12:04:58;4.17;;;3.87;;
8001;SDS011;4046;48.774;8.732;2022-09-01T12:07:38;4.20;;;4.00;;
8001;SDS011;4046;48.774;8.732;2022-09-01T12:10:19;4.10;;;3.80;;
8001;SDS011;4046;48.774;8.732;2022-09-01T12:12:46;4.80;;;4.50;;
8001;SDS011;4046;48.774;8.732;2022-09-01T12:17:46;4.23;;;3.93;;
8001;SDS011;4046;48.774;8.732;2022-09-01T12:20:26;4.70;;;4.30;;
8001;SDS011;4046;48.774;8.732;2022-09-01T12:22:54;4.17;;;3.87;;
8001;SDS011;4046;48.774;8.732;2022-09-01T12:25:21;4.20;;;4.00;;
8001;SDS011;4046;48.774;8.732;2022-09-01T12:27:49;4.00;;;3.80;;
8001;SDS011;4046;48.774;8.732;2022-09-01T12:30:24;4.70;;;4.13;;
8001;SDS011;4046;48.774;8.732;2022-09-01T12:32:50;4.43;;;3.60;;
8001;SDS011;4046;48.774;8.732;2022-09-01T12:35:21;4.83;;;4.53;;
8001;SDS011;4046;48.774;8.732;2022-09-01T12:37:49;4.23;;;3.93;;
8001;SDS011;4046;48.774;8.732;2022-09-01T12:40:21;4.70;;;4.40;;
8001;SDS011;4046;48.774;8.732;2022-09-01T12:42:55;4.67;;;4.33;;
8001;SDS011;4046;48.774;8.732;2022-09-01T12:48:05;4.43;;;4.03;;
8001;SDS011;4046;48.774;8.732;2022-09-01T12:50:33;3.93;;;3.63;;
8001;SDS011;4046;48.774;8.732;2022-09-01T12:53:02;4.23;;;3.93;;
8001;SDS011;4046;48.774;8.732;2022-09-01T12:55:38;6.77;;;4.80;;
8001;SDS011;4046;48.774;8.732;2022-09-01T12:58:05;8.80;;;5.53;;
8001;SDS011;4046;48.774;8.732;2022-09-01T13:00:33;5.23;;;4.40;;
8001;SDS011;4046;48.774;8.732;2022-09-01T13:07:59;4.80;;;4.50;;
8001;SDS011;4046;48.774;8.732;2022-09-01T13:10:38;4.70;;;4.40;;
8001;SDS011;4046;48.774;8.732;2022-09-01T13:13:04;4.70;;;4.40;;
8001;SDS011;4046;48.774;8.732;2022-09-01T13:15:31;7.30;;;4.83;;
8001;SDS011;4046;48.774;8.732;2022-09-01T13:17:58;6.27;;;4.30;;
8001;SDS011;4046;48.774;8.732;2022-09-01T13:20:23;4.80;;;4.50;;
8001;SDS011;4046;48.774;8.732;2022-09-01T13:22:49;4.70;;;4.30;;
8001;SDS011;4046;48.774;8.732;2022-09-01T13:25:17;4.50;;;4.20;;
8001;SDS011;4046;48.774;8.732;2022-09-01T13:27:44;5.50;;;5.00;;
8001;SDS011;4046;48.774;8.732;2022-09-01T13:30:16;7.40;;;4.40;;
8001;SDS011;4046;48.774;8.732;2022-09-01T13:32:47;4.33;;;4.10;;
8001;SDS011;4046;48.774;8.732;2022-09-01T13:35:14;10.20;;;4.73;;
8001;SDS011;4046;48.774;8.732;2022-09-01T13:37:43;5.10;;;4.50;;
8001;SDS011;4046;48.774;8.732;2022-09-01T13:40:10;4.33;;;4.03;;
8001;SDS011;4046;48.774;8.732;2022-09-01T13:42:43;4.77;;;4.47;;
8001;SDS011;4046;48.774;8.732;2022-09-01T13:45:11;4.83;;;4.50;;
8001;SDS011;4046;48.774;8.732;2022-09-01T13:47:41;4.73;;;4.33;;
8001;SDS011;4046;48.774;8.732;2022-09-01T13:50:07;4.00;;;3.70;;
8001;SDS011;4046;48.774;8.732;2022-09-01T13:52:35;4.30;;;4.00;;
8001;SDS011;4046;48.774;8.732;2022-09-01T13:55:02;4.00;;;3.80;;
8001;SDS011;4046;48.774;8.732;2022-09-01T13:57:28;4.17;;;3.87;;
8001;SDS011;4046;48.774;8.732;2022-09-01T13:59:54;4.53;;;4.23;;
8001;SDS011;4046;48.774;8.732;2022-09-01T14:02:20;4.70;;;4.03;;
8001;SDS011;4046;48.774;8.732;2022-09-01T14:04:46;4.37;;;4.07;;
8001;SDS011;4046;48.774;8.732;2022-09-01T14:07:12;3.77;;;3.47;;
8001;SDS011;4046;48.774;8.732;2022-09-01T14:09:37;3.37;;;3.10;;
8001;SDS011;4046;48.774;8.732;2022-09-01T14:12:03;3.43;;;3.23;;
8001;SDS011;4046;48.774;8.732;2022-09-01T14:14:29;3.60;;;3.30;;
8001;SDS011;4046;48.774;8.732;2022-09-01T14:16:57;3.40;;;3.20;;
8001;SDS011;4046;48.774;8.732;2022-09-01T14:19:22;7.07;;;3.60;;
8001;SDS011;4046;48.774;8.732;2022-09-01T14:21:48;3.77;;;3.50;;
8001;SDS011;4046;48.774;8.732;2022-09-01T14:24:14;5.87;;;4.23;;
8001;SDS011;4046;48.774;8.732;2022-09-01T14:26:44;4.60;;;4.30;;
8001;SDS011;4046;48.774;8.732;2022-09-01T14:29:10;4.70;;;4.40;;
8001;SDS011;4046;48.774;8.732;2022-09-01T14:31:35;5.63;;;5.03;;
8001;SDS011;4046;48.774;8.732;2022-09-01T14:34:02;4.80;;;4.50;;
8001;SDS011;4046;48.774;8.732;2022-09-01T14:36:28;4.40;;;4.20;;
8001;SDS011;4046;48.774;8.732;2022-09-01T14:38:54;5.40;;;4.43;;
8001;SDS011;4046;48.774;8.732;2022-09-01T14:41:21;4.30;;;4.00;;
8001;SDS011;4046;48.774;8.732;2022-09-01T14:43:50;4.90;;;4.60;;
8001;SDS011;4046;48.774;8.732;2022-09-01T14:46:17;4.60;;;4.20;;
8001;SDS011;4046;48.774;8.732;2022-09-01T14:48:44;5.47;;;4.90;;
8001;SDS011;4046;48.774;8.732;2022-09-01T14:51:18;4.87;;;4.47;;
8001;SDS011;4046;48.774;8.732;2022-09-01T14:53:54;4.40;;;4.10;;
8001;SDS011;4046;48.774;8.732;2022-09-01T14:56:20;4.07;;;3.77;;
8001;SDS011;4046;48.774;8.732;2022-09-01T14:58:47;4.30;;;3.87;;
8001;SDS011;4046;48.774;8.732;2022-09-01T15:01:15;4.70;;;4.40;;
8001;SDS011;4046;48.774;8.732;2022-09-01T15:03:42;3.73;;;3.53;;
8001;SDS011;4046;48.774;8.732;2022-09-01T15:06:11;4.10;;;3.90;;
8001;SDS011;4046;48.774;8.732;2022-09-01T15:08:39;4.10;;;3.90;;
8001;SDS011;4046;48.774;8.732;2022-09-01T15:11:09;4.07;;;3.77;;
8001;SDS011;4046;48.774;8.732;2022-09-01T15:13:36;4.10;;;3.80;;
8001;SDS011;4046;48.774;8.732;2022-09-01T15:16:03;4.10;;;3.80;;
8001;SDS011;4046;48.774;8.732;2022-09-01T15:18:29;3.10;;;2.90;;
8001;SDS011;4046;48.774;8.732;2022-09-01T15:20:55;3.87;;;3.63;;
8001;SDS011;4046;48.774;8.732;2022-09-01T15:23:22;3.33;;;3.13;;
8001;SDS011;4046;48.774;8.732;2022-09-01T15:25:50;3.83;;;3.63;;
8001;SDS011;4046;48.774;8.732;2022-09-01T15:28:18;4.53;;;4.13;;
8001;SDS011;4046;48.774;8.732;2022-09-01T15:30:44;4.10;;;3.80;;
8001;SDS011;4046;48.774;8.732;2022-09-01T15:33:11;4.70;;;4.30;;
8001;SDS011;4046;48.774;8.732;2022-09-01T15:35:37;4.60;;;4.30;;
8001;SDS011;4046;48.774;8.732;2022-09-01T15:38:04;4.63;;;4.23;;
8001;SDS011;4046;48.774;8.732;2022-09-01T15:40:32;5.10;;;4.70;;
8001;SDS011;4046;48.774;8.732;2022-09-01T15:42:58;4.67;;;4.37;;
8001;SDS011;4046;48.774;8.732;2022-09-01T15:45:24;4.57;;;4.27;;
8001;SDS011;4046;48.774;8.732;2022-09-01T15:47:53;5.20;;;4.80;;
8001;SDS011;4046;48.774;8.732;2022-09-01T15:50:20;4.90;;;4.40;;
8001;SDS011;4046;48.774;8.732;2022-09-01T15:55:19;5.53;;;5.10;;
8001;SDS011;4046;48.774;8.732;2022-09-01T15:57:47;5.00;;;4.60;;
8001;SDS011;4046;48.774;8.732;2022-09-01T16:00:14;4.33;;;4.03;;
8001;SDS011;4046;48.774;8.732;2022-09-01T16:02:41;5.27;;;4.90;;
8001;SDS011;4046;48.774;8.732;2022-09-01T16:05:07;4.10;;;3.90;;
8001;SDS011;4046;48.774;8.732;2022-09-01T16:07:34;6.77;;;6.17;;
8001;SDS011;4046;48.774;8.732;2022-09-01T16:09:59;6.77;;;6.27;;
8001;SDS011;4046;48.774;8.732;2022-09-01T16:12:25;5.80;;;5.40;;
8001;SDS011;4046;48.774;8.732;2022-09-01T16:14:51;5.87;;;5.30;;
8001;SDS011;4046;48.774;8.732;2022-09-01T16:20:29;4.40;;;4.10;;
8001;SDS011;4046;48.774;8.732;2022-09-01T16:22:53;4.93;;;4.63;;
8001;SDS011;4046;48.774;8.732;2022-09-01T16:25:26;4.57;;;4.27;;
8001;SDS011;4046;48.774;8.732;2022-09-01T16:27:54;4.87;;;4.57;;
8001;SDS011;4046;48.774;8.732;2022-09-01T16:30:25;4.70;;;4.27;;
8001;SDS011;4046;48.774;8.732;2022-09-01T16:32:53;4.60;;;4.30;;